createdAt,value
2024-02-26T00:02:13.515Z,99793.18
2024-02-26T00:04:41.293Z,99793.94
2024-02-26T00:07:09.218Z,99788.98
2024-02-26T00:09:38.272Z,99785.73
2024-02-26T00:12:06.127Z,99789.27
2024-02-26T00:14:33.792Z,99785.55
2024-02-26T00:17:01.804Z,99785.95
2024-02-26T00:19:29.583Z,99780.97
2024-02-26T00:21:57.239Z,99780.88
2024-02-26T00:24:26.721Z,99777.64
2024-02-26T00:26:55.905Z,99776.33
2024-02-26T00:29:24.170Z,99777.24
2024-02-26T00:31:51.903Z,99775.77
2024-02-26T00:34:19.669Z,99768.36
2024-02-26T00:36:47.373Z,99767.05
2024-02-26T00:39:15.028Z,99768.19
2024-02-26T00:41:42.840Z,99769.27
2024-02-26T00:44:10.545Z,99768.10
2024-02-26T00:46:38.270Z,99766.95
2024-02-26T00:49:06.064Z,99769.27
2024-02-26T00:51:33.801Z,99766.70
2024-02-26T00:54:01.494Z,99770.03
2024-02-26T00:56:29.411Z,99772.33
2024-02-26T00:58:57.150Z,99773.41
2024-02-26T01:01:24.858Z,99768.94
2024-02-26T01:03:52.741Z,99768.45
2024-02-26T01:06:20.439Z,99770.05
2024-02-26T01:08:48.265Z,99770.94
2024-02-26T01:11:15.997Z,99768.39
2024-02-26T01:13:43.726Z,99774.48
2024-02-26T01:16:12.013Z,99775.04
2024-02-26T01:18:40.051Z,99773.34
2024-02-26T01:21:09.946Z,99773.72
2024-02-26T01:23:37.841Z,99773.93
2024-02-26T01:26:05.984Z,99772.41
2024-02-26T01:28:33.593Z,99772.11
2024-02-26T01:31:01.299Z,99769.36
2024-02-26T01:33:29.118Z,99766.09
2024-02-26T01:35:56.827Z,99762.11
2024-02-26T01:38:24.568Z,99763.19
2024-02-26T01:40:52.161Z,99764.27
2024-02-26T01:43:19.772Z,99764.80
2024-02-26T01:45:47.534Z,99759.80
2024-02-26T01:48:15.311Z,99763.48
2024-02-26T01:50:43.141Z,99765.07
2024-02-26T01:53:11.335Z,99763.73
2024-02-26T01:55:39.332Z,99771.02
2024-02-26T01:58:07.159Z,99770.52
2024-02-26T02:00:35.324Z,99773.83
2024-02-26T02:03:04.739Z,99771.58
2024-02-26T02:05:32.644Z,99771.59
2024-02-26T02:08:00.445Z,99772.96
2024-02-26T02:10:28.981Z,99767.77
2024-02-26T02:12:56.678Z,99770.20
2024-02-26T02:15:24.493Z,99773.52
2024-02-26T02:17:52.348Z,99769.23
2024-02-26T02:20:20.422Z,99774.11
2024-02-26T02:22:48.409Z,99771.69
2024-02-26T02:25:16.147Z,99769.30
2024-02-26T02:27:44.358Z,99772.08
2024-02-26T02:30:12.741Z,99773.14
2024-02-26T02:32:43.062Z,99775.23
2024-02-26T02:35:11.013Z,99778.73
2024-02-26T02:37:38.745Z,99779.77
2024-02-26T02:40:07.177Z,99779.78
2024-02-26T02:42:34.788Z,99778.59
2024-02-26T02:45:02.562Z,99778.94
2024-02-26T02:47:30.259Z,99785.20
2024-02-26T02:49:57.926Z,99781.23
2024-02-26T02:52:25.560Z,99785.43
2024-02-26T02:54:53.181Z,99782.31
2024-02-26T02:57:21.161Z,99782.35
2024-02-26T02:59:49.040Z,99789.47
2024-02-26T03:02:16.672Z,99793.80
2024-02-26T03:04:44.426Z,99800.75
2024-02-26T03:07:12.295Z,99796.79
2024-02-26T03:09:39.946Z,99797.32
2024-02-26T03:12:07.755Z,99798.37
2024-02-26T03:14:35.452Z,99802.36
2024-02-26T03:17:03.104Z,99806.89
2024-02-26T03:19:30.755Z,99802.04
2024-02-26T03:21:58.431Z,99804.99
2024-02-26T03:24:26.191Z,99808.45
2024-02-26T03:26:53.970Z,99809.31
2024-02-26T03:29:21.622Z,99807.92
2024-02-26T03:31:49.262Z,99808.09
2024-02-26T03:34:18.676Z,99810.18
2024-02-26T03:36:46.398Z,99812.27
2024-02-26T03:39:14.298Z,99812.29
2024-02-26T03:41:42.079Z,99816.45
2024-02-26T03:44:09.801Z,99815.06
2024-02-26T03:46:37.468Z,99811.60
2024-02-26T03:49:05.300Z,99808.66
2024-02-26T03:51:33.974Z,99808.14
2024-02-26T03:54:02.366Z,99813.69
2024-02-26T03:56:30.268Z,99813.16
2024-02-26T03:58:57.937Z,99810.77
2024-02-26T04:01:25.648Z,99811.98
2024-02-26T04:03:53.902Z,99812.15
2024-02-26T04:06:22.362Z,99811.30
2024-02-26T04:08:50.245Z,99811.83
2024-02-26T04:11:19.870Z,99806.98
2024-02-26T04:13:50.359Z,99810.11
2024-02-26T04:16:18.230Z,99812.00
2024-02-26T04:18:46.175Z,99810.81
2024-02-26T04:21:14.004Z,99811.50
2024-02-26T04:23:41.787Z,99812.73
2024-02-26T04:26:09.495Z,99808.91
2024-02-26T04:28:37.416Z,99812.89
2024-02-26T04:31:05.121Z,99813.77
2024-02-26T04:33:36.242Z,99816.38
2024-02-26T04:36:04.384Z,99815.86
2024-02-26T04:38:32.136Z,99812.91
2024-02-26T04:40:59.774Z,99812.56
2024-02-26T04:43:27.419Z,99812.41
2024-02-26T04:45:55.682Z,99816.41
2024-02-26T04:48:24.279Z,99811.91
2024-02-26T04:50:52.036Z,99815.20
2024-02-26T04:53:19.747Z,99811.05
2024-02-26T04:55:47.335Z,99810.20
2024-02-26T04:58:15.046Z,99811.76
2024-02-26T05:00:42.673Z,99815.22
2024-02-26T05:03:14.252Z,99816.27
2024-02-26T05:05:44.456Z,99815.58
2024-02-26T05:08:12.215Z,99810.41
2024-02-26T05:10:44.299Z,99812.14
2024-02-26T05:13:12.043Z,99815.78
2024-02-26T05:15:39.746Z,99813.36
2024-02-26T05:18:08.895Z,99822.54
2024-02-26T05:20:37.187Z,99822.90
2024-02-26T05:23:05.129Z,99823.25
2024-02-26T05:25:32.796Z,99823.77
2024-02-26T05:28:00.538Z,99828.96
2024-02-26T05:30:29.505Z,99831.56
2024-02-26T05:32:57.536Z,99835.88
2024-02-26T05:35:26.924Z,99837.09
2024-02-26T05:37:55.119Z,99839.86
2024-02-26T05:40:22.770Z,99837.09
2024-02-26T05:42:50.536Z,99836.55
2024-02-26T05:45:18.496Z,99840.36
2024-02-26T05:47:46.512Z,99846.59
2024-02-26T05:50:14.330Z,99844.84
2024-02-26T05:52:42.098Z,99844.33
2024-02-26T05:55:10.161Z,99846.56
2024-02-26T05:57:37.844Z,99847.77
2024-02-26T06:00:06.055Z,99847.41
2024-02-26T06:02:34.108Z,99851.90
2024-02-26T06:05:01.769Z,99850.67
2024-02-26T06:07:29.547Z,99850.14
2024-02-26T06:09:57.182Z,99851.17
2024-02-26T06:12:24.889Z,99852.55
2024-02-26T06:14:52.525Z,99852.70
2024-02-26T06:17:20.201Z,99853.39
2024-02-26T06:19:47.975Z,99851.80
2024-02-26T06:22:15.680Z,99851.08
2024-02-26T06:24:43.321Z,99851.23
2024-02-26T06:27:11.069Z,99851.73
2024-02-26T06:29:38.784Z,99853.63
2024-02-26T06:32:06.846Z,99856.73
2024-02-26T06:34:34.586Z,99856.02
2024-02-26T06:37:02.354Z,99860.15
2024-02-26T06:39:30.079Z,99864.64
2024-02-26T06:42:01.719Z,99869.27
2024-02-26T06:44:35.311Z,99868.34
2024-02-26T06:47:03.151Z,99872.45
2024-02-26T06:49:31.261Z,99870.52
2024-02-26T06:52:01.315Z,99872.04
2024-02-26T06:54:29.184Z,99867.13
2024-02-26T06:56:56.899Z,99871.56
2024-02-26T06:59:25.305Z,99873.55
2024-02-26T07:01:52.946Z,99873.27
2024-02-26T07:04:20.721Z,99873.84
2024-02-26T07:06:48.990Z,99875.98
2024-02-26T07:09:17.087Z,99870.99
2024-02-26T07:11:44.983Z,99874.88
2024-02-26T07:14:13.434Z,99872.17
2024-02-26T07:16:41.424Z,99872.72
2024-02-26T07:19:09.149Z,99874.69
2024-02-26T07:21:37.064Z,99874.39
2024-02-26T07:24:05.011Z,99875.17
2024-02-26T07:26:33.037Z,99875.73
2024-02-26T07:29:01.217Z,99882.86
2024-02-26T07:31:28.982Z,99886.17
2024-02-26T07:33:56.772Z,99887.67
2024-02-26T07:36:24.508Z,99885.71
2024-02-26T07:38:55.317Z,99885.64
2024-02-26T07:41:22.991Z,99882.46
2024-02-26T07:43:50.642Z,99883.12
2024-02-26T07:46:18.520Z,99884.09
2024-02-26T07:48:48.757Z,99886.12
2024-02-26T07:51:16.531Z,99891.05
2024-02-26T07:53:44.565Z,99886.42
2024-02-26T07:56:12.417Z,99889.14
2024-02-26T07:58:40.309Z,99890.29
2024-02-26T08:01:08.116Z,99891.40
2024-02-26T08:03:35.853Z,99894.63
2024-02-26T08:06:03.833Z,99895.23
2024-02-26T08:08:31.495Z,99895.52
2024-02-26T08:10:59.317Z,99895.13
2024-02-26T08:13:27.424Z,99891.73
2024-02-26T08:15:56.129Z,99894.40
2024-02-26T08:18:23.921Z,99893.92
2024-02-26T08:20:51.576Z,99894.85
2024-02-26T08:23:19.319Z,99899.61
2024-02-26T08:25:47.100Z,99898.45
2024-02-26T08:28:15.184Z,99893.63
2024-02-26T08:30:42.796Z,99891.80
2024-02-26T08:33:11.262Z,99890.83
2024-02-26T08:35:39.030Z,99895.08
2024-02-26T08:38:06.701Z,99894.10
2024-02-26T08:40:34.370Z,99899.58
2024-02-26T08:43:01.981Z,99896.86
2024-02-26T08:45:30.563Z,99897.28
2024-02-26T08:48:00.526Z,99900.33
2024-02-26T08:50:28.261Z,99900.02
2024-02-26T08:52:55.933Z,99902.23
2024-02-26T08:55:23.705Z,99901.13
2024-02-26T08:57:51.356Z,99906.80
2024-02-26T09:00:21.706Z,99899.74
2024-02-26T09:02:50.599Z,99907.17
2024-02-26T09:05:18.436Z,99901.34
2024-02-26T09:07:47.710Z,99899.20
2024-02-26T09:10:15.759Z,99902.64
2024-02-26T09:12:43.589Z,99904.54
2024-02-26T09:15:11.282Z,99900.46
2024-02-26T09:17:39.216Z,99901.50
2024-02-26T09:20:10.171Z,99904.46
2024-02-26T09:22:39.104Z,99907.38
2024-02-26T09:25:07.597Z,99905.77
2024-02-26T09:27:35.351Z,99908.34
2024-02-26T09:30:03.864Z,99903.76
2024-02-26T09:32:31.887Z,99903.98
2024-02-26T09:34:59.574Z,99907.30
2024-02-26T09:37:27.253Z,99904.19
2024-02-26T09:39:54.986Z,99904.39
2024-02-26T09:42:27.088Z,99903.49
2024-02-26T09:44:58.847Z,99902.14
2024-02-26T09:47:29.439Z,99901.63
2024-02-26T09:49:58.173Z,99899.63
2024-02-26T09:52:26.923Z,99900.36
2024-02-26T09:54:54.722Z,99899.27
2024-02-26T09:57:25.793Z,99905.77
2024-02-26T10:00:00.219Z,99905.60
2024-02-26T10:02:29.293Z,99910.25
2024-02-26T10:05:02.293Z,99912.88
2024-02-26T10:07:31.275Z,99913.64
2024-02-26T10:09:59.206Z,99911.13
2024-02-26T10:12:29.533Z,99909.94
2024-02-26T10:14:57.231Z,99910.26
2024-02-26T10:17:25.993Z,99912.23
2024-02-26T10:19:57.579Z,99913.52
2024-02-26T10:22:25.450Z,99908.79
2024-02-26T10:24:55.115Z,99914.52
2024-02-26T10:27:22.906Z,99914.30
2024-02-26T10:29:52.858Z,99917.36
2024-02-26T10:32:20.575Z,99916.88
2024-02-26T10:34:48.337Z,99917.91
2024-02-26T10:37:16.200Z,99921.55
2024-02-26T10:39:48.924Z,99919.41
2024-02-26T10:42:19.103Z,99920.36
2024-02-26T10:44:47.087Z,99925.65
2024-02-26T10:47:15.697Z,99927.17
2024-02-26T10:49:49.052Z,99919.92
2024-02-26T10:52:19.921Z,99918.23
2024-02-26T10:54:51.930Z,99921.30
2024-02-26T10:57:20.337Z,99922.85
2024-02-26T10:59:50.226Z,99922.70
2024-02-26T11:02:18.937Z,99925.55
2024-02-26T11:04:47.710Z,99921.11
2024-02-26T11:07:17.015Z,99925.05
2024-02-26T11:09:48.021Z,99925.16
2024-02-26T11:12:15.856Z,99923.56
2024-02-26T11:14:46.981Z,99923.11
2024-02-26T11:17:17.743Z,99927.46
2024-02-26T11:19:47.315Z,99918.20
2024-02-26T11:22:21.203Z,99922.52
2024-02-26T11:24:55.210Z,99920.27
2024-02-26T11:27:27.924Z,99918.38
2024-02-26T11:29:58.556Z,99922.22
2024-02-26T11:32:28.155Z,99920.77
2024-02-26T11:34:56.105Z,99924.02
2024-02-26T11:37:23.822Z,99927.48
2024-02-26T11:39:53.500Z,99923.21
2024-02-26T11:42:24.927Z,99922.44
2024-02-26T11:44:53.018Z,99922.84
2024-02-26T11:47:22.863Z,99923.63
2024-02-26T11:49:50.931Z,99922.27
2024-02-26T11:52:18.666Z,99923.04
2024-02-26T11:54:47.411Z,99920.74
2024-02-26T11:57:26.874Z,99919.44
2024-02-26T11:59:56.366Z,99919.45
2024-02-26T12:02:45.256Z,99914.83
2024-02-26T12:05:22.121Z,99915.15
2024-02-26T12:07:54.143Z,99914.58
2024-02-26T12:10:35.186Z,99912.13
2024-02-26T12:13:14.811Z,99912.61
2024-02-26T12:15:46.132Z,99910.45
2024-02-26T12:18:18.751Z,99914.33
2024-02-26T12:20:47.784Z,99912.70
2024-02-26T12:23:18.210Z,99915.33
2024-02-26T12:25:49.099Z,99914.29
2024-02-26T12:28:16.994Z,99909.76
2024-02-26T12:30:44.761Z,99908.86
2024-02-26T12:33:12.684Z,99903.94
2024-02-26T12:35:40.376Z,99904.42
2024-02-26T12:38:08.920Z,99904.66
2024-02-26T12:40:36.776Z,99903.78
2024-02-26T12:43:05.149Z,99902.65
2024-02-26T12:45:33.302Z,99903.73
2024-02-26T12:48:01.536Z,99905.63
2024-02-26T12:50:29.384Z,99902.75
2024-02-26T12:52:57.040Z,99899.92
2024-02-26T12:55:24.691Z,99894.56
2024-02-26T12:57:53.388Z,99896.14
2024-02-26T13:00:24.996Z,99895.23
2024-02-26T13:02:53.840Z,99897.30
2024-02-26T13:05:22.147Z,99897.20
2024-02-26T13:07:49.961Z,99895.33
2024-02-26T13:10:19.430Z,99901.42
2024-02-26T13:12:49.212Z,99911.45
2024-02-26T13:15:19.832Z,99907.83
2024-02-26T13:17:49.225Z,99909.48
2024-02-26T13:20:29.354Z,99900.18
2024-02-26T13:23:05.868Z,99900.77
2024-02-26T13:25:35.072Z,99898.20
2024-02-26T13:28:17.390Z,99891.79
2024-02-26T13:30:57.708Z,99890.02
2024-02-26T13:33:26.998Z,99894.68
2024-02-26T13:35:57.104Z,99890.93
2024-02-26T13:38:25.659Z,99887.20
2024-02-26T13:40:54.166Z,99893.41
2024-02-26T13:43:22.440Z,99893.57
2024-02-26T13:45:50.552Z,99899.08
2024-02-26T13:48:18.410Z,99903.31
2024-02-26T13:50:47.162Z,99904.54
2024-02-26T13:53:15.845Z,99907.88
2024-02-26T13:55:44.914Z,99904.83
2024-02-26T13:58:17.266Z,99900.46
2024-02-26T14:00:45.230Z,99897.64
2024-02-26T14:03:13.148Z,99898.45
2024-02-26T14:05:43.468Z,99894.06
2024-02-26T14:08:12.903Z,99893.61
2024-02-26T14:10:40.592Z,99898.50
2024-02-26T14:13:08.222Z,99892.22
2024-02-26T14:15:36.905Z,99890.87
2024-02-26T14:18:05.504Z,99888.03
2024-02-26T14:20:33.375Z,99891.50
2024-02-26T14:23:01.812Z,99888.16
2024-02-26T14:25:31.432Z,99892.96
2024-02-26T14:28:00.097Z,99893.09
2024-02-26T14:30:28.248Z,99894.63
2024-02-26T14:32:56.622Z,99900.13
2024-02-26T14:35:24.604Z,99896.34
2024-02-26T14:37:53.113Z,99898.09
2024-02-26T14:40:21.087Z,99898.11
2024-02-26T14:42:48.949Z,99892.90
2024-02-26T14:45:17.756Z,99900.96
2024-02-26T14:47:45.618Z,99898.65
2024-02-26T14:50:13.345Z,99900.60
2024-02-26T14:52:41.296Z,99900.74
2024-02-26T14:55:09.202Z,99902.89
2024-02-26T14:57:36.979Z,99908.41
2024-02-26T15:00:06.856Z,99905.31
2024-02-26T15:02:36.780Z,99902.59
2024-02-26T15:05:04.980Z,99902.91
2024-02-26T15:07:32.678Z,99903.30
2024-02-26T15:10:01.842Z,99899.98
2024-02-26T15:12:29.786Z,99899.42
2024-02-26T15:14:57.893Z,99899.22
2024-02-26T15:17:28.841Z,99902.05
2024-02-26T15:19:58.171Z,99896.13
2024-02-26T15:22:26.182Z,99889.91
2024-02-26T15:24:54.200Z,99896.86
2024-02-26T15:27:21.992Z,99904.16
2024-02-26T15:29:50.409Z,99912.46
2024-02-26T15:32:18.165Z,99912.25
2024-02-26T15:34:45.910Z,99913.86
2024-02-26T15:37:14.967Z,99914.13
2024-02-26T15:39:42.908Z,99915.21
2024-02-26T15:42:10.631Z,99910.99
2024-02-26T15:44:39.232Z,99912.27
2024-02-26T15:47:08.128Z,99913.06
2024-02-26T15:49:36.174Z,99916.30
2024-02-26T15:52:05.244Z,99919.89
2024-02-26T15:54:33.193Z,99926.10
2024-02-26T15:57:01.035Z,99935.45
2024-02-26T15:59:28.636Z,99931.45
2024-02-26T16:01:56.258Z,99926.05
2024-02-26T16:04:23.948Z,99931.66
2024-02-26T16:06:56.535Z,99932.59
2024-02-26T16:09:24.570Z,99932.44
2024-02-26T16:11:52.267Z,99935.79
2024-02-26T16:14:47.517Z,99937.61
2024-02-26T16:17:21.481Z,99944.34
2024-02-26T16:19:49.213Z,99943.64
2024-02-26T16:22:16.897Z,99947.91
2024-02-26T16:24:44.493Z,99949.05
2024-02-26T16:27:12.724Z,99952.17
2024-02-26T16:29:40.384Z,99953.92
2024-02-26T16:32:09.229Z,99958.48
2024-02-26T16:34:37.014Z,99961.21
2024-02-26T16:37:10.988Z,99967.59
2024-02-26T16:39:39.897Z,99970.98
2024-02-26T16:42:15.289Z,99977.67
2024-02-26T16:44:43.061Z,99970.88
2024-02-26T16:47:11.039Z,99970.91
2024-02-26T16:49:38.992Z,99976.95
2024-02-26T16:52:06.847Z,99982.32
2024-02-26T16:54:34.521Z,99976.41
2024-02-26T16:57:03.222Z,99979.98
2024-02-26T16:59:31.081Z,99982.84
2024-02-26T17:02:00.383Z,99982.17
2024-02-26T17:04:28.513Z,99984.54
2024-02-26T17:06:56.566Z,99990.05
2024-02-26T17:09:24.941Z,99989.58
2024-02-26T17:11:54.951Z,99990.65
2024-02-26T17:14:23.916Z,99990.85
2024-02-26T17:16:51.784Z,99990.89
2024-02-26T17:19:19.769Z,99991.96
2024-02-26T17:21:47.609Z,99990.21
2024-02-26T17:24:15.328Z,99989.88
2024-02-26T17:26:43.044Z,99993.77
2024-02-26T17:29:11.125Z,99999.73
2024-02-26T17:31:43.195Z,100002.35
2024-02-26T17:34:11.738Z,100003.41
2024-02-26T17:36:40.245Z,100001.83
2024-02-26T17:39:08.125Z,99998.66
2024-02-26T17:41:35.839Z,99998.46
2024-02-26T17:44:03.683Z,99996.54
2024-02-26T17:46:31.338Z,99998.68
2024-02-26T17:48:59.185Z,99999.73
2024-02-26T17:51:26.997Z,100002.52
2024-02-26T17:53:55.148Z,100006.12
2024-02-26T17:56:22.862Z,100003.48
2024-02-26T17:58:50.625Z,100000.18
2024-02-26T18:01:18.500Z,100004.75
2024-02-26T18:03:46.315Z,100009.16
2024-02-26T18:06:14.277Z,100013.56
2024-02-26T18:08:41.914Z,100014.45
2024-02-26T18:11:11.318Z,100018.70
2024-02-26T18:13:42.476Z,100019.23
2024-02-26T18:16:10.134Z,100018.90
2024-02-26T18:18:38.174Z,100018.73
2024-02-26T18:21:06.219Z,100021.05
2024-02-26T18:23:33.910Z,100019.15
2024-02-26T18:26:03.727Z,100017.44
2024-02-26T18:28:31.370Z,100019.38
2024-02-26T18:31:00.453Z,100017.85
2024-02-26T18:33:28.299Z,100017.00
2024-02-26T18:35:56.303Z,100020.56
2024-02-26T18:38:24.572Z,100020.44
2024-02-26T18:40:52.532Z,100016.25
2024-02-26T18:43:20.194Z,100015.78
2024-02-26T18:45:50.299Z,100015.66
2024-02-26T18:48:18.241Z,100022.19
2024-02-26T18:50:47.722Z,100021.52
2024-02-26T18:53:16.097Z,100024.18
2024-02-26T18:55:43.902Z,100017.72
2024-02-26T18:58:11.960Z,100016.52
2024-02-26T19:00:39.825Z,100011.25
2024-02-26T19:03:08.002Z,100017.77
2024-02-26T19:05:35.866Z,100014.65
2024-02-26T19:08:04.025Z,100017.83
2024-02-26T19:10:31.867Z,100020.83
2024-02-26T19:12:59.881Z,100021.34
2024-02-26T19:15:28.728Z,100022.83
2024-02-26T19:17:58.517Z,100023.04
2024-02-26T19:20:26.627Z,100020.45
2024-02-26T19:22:54.845Z,100019.05
2024-02-26T19:25:22.552Z,100021.38
2024-02-26T19:27:50.569Z,100029.27
2024-02-26T19:30:18.472Z,100033.85
2024-02-26T19:32:46.250Z,100033.88
2024-02-26T19:35:14.104Z,100031.06
2024-02-26T19:37:42.148Z,100034.08
2024-02-26T19:40:11.319Z,100034.43
2024-02-26T19:42:39.247Z,100035.70
2024-02-26T19:45:10.034Z,100042.05
2024-02-26T19:47:41.488Z,100032.97
2024-02-26T19:50:09.694Z,100030.77
2024-02-26T19:52:37.437Z,100032.02
2024-02-26T19:55:08.696Z,100035.35
2024-02-26T19:57:36.665Z,100035.38
2024-02-26T20:00:05.071Z,100033.66
2024-02-26T20:02:33.021Z,100034.39
2024-02-26T20:05:00.654Z,100033.38
2024-02-26T20:07:29.672Z,100032.20
2024-02-26T20:09:57.426Z,100028.59
2024-02-26T20:12:26.350Z,100027.41
2024-02-26T20:14:54.233Z,100029.37
2024-02-26T20:17:22.915Z,100029.25
2024-02-26T20:19:50.732Z,100032.95
2024-02-26T20:22:18.488Z,100028.59
2024-02-26T20:24:46.393Z,100026.75
2024-02-26T20:27:14.167Z,100028.88
2024-02-26T20:29:42.010Z,100031.36
2024-02-26T20:32:09.754Z,100031.23
2024-02-26T20:34:37.849Z,100031.11
2024-02-26T20:37:05.527Z,100030.79
2024-02-26T20:39:33.960Z,100030.29
2024-02-26T20:42:01.700Z,100029.79
2024-02-26T20:44:29.429Z,100031.73
2024-02-26T20:47:00.537Z,100035.25
2024-02-26T20:49:28.566Z,100040.37
2024-02-26T20:51:56.337Z,100036.02
2024-02-26T20:54:25.300Z,100040.07
2024-02-26T20:56:53.562Z,100037.48
2024-02-26T20:59:21.772Z,100038.23
2024-02-26T21:01:49.514Z,100043.33
2024-02-26T21:04:21.314Z,100046.67
2024-02-26T21:06:50.904Z,100050.23
2024-02-26T21:09:19.535Z,100054.98
2024-02-26T21:11:47.308Z,100055.02
2024-02-26T21:14:14.903Z,100055.02
2024-02-26T21:16:42.615Z,100061.90
2024-02-26T21:19:10.395Z,100061.48
2024-02-26T21:21:39.657Z,100062.27
2024-02-26T21:24:07.401Z,100062.69
2024-02-26T21:26:35.123Z,100069.20
2024-02-26T21:29:02.892Z,100072.58
2024-02-26T21:31:30.550Z,100067.73
2024-02-26T21:33:58.361Z,100066.60
2024-02-26T21:36:26.197Z,100067.96
2024-02-26T21:38:53.840Z,100075.45
2024-02-26T21:41:21.530Z,100082.36
2024-02-26T21:43:51.966Z,100079.06
2024-02-26T21:46:21.589Z,100081.05
2024-02-26T21:48:49.495Z,100082.33
2024-02-26T21:51:17.289Z,100087.60
2024-02-26T21:53:46.707Z,100084.63
2024-02-26T21:56:15.632Z,100087.98
2024-02-26T21:58:43.370Z,100088.23
2024-02-26T22:01:11.033Z,100091.23
2024-02-26T22:03:38.835Z,100092.83
2024-02-26T22:06:07.281Z,100091.06
2024-02-26T22:08:35.041Z,100089.48
2024-02-26T22:11:03.624Z,100091.27
2024-02-26T22:13:31.350Z,100094.06
2024-02-26T22:15:58.962Z,100094.94
2024-02-26T22:18:26.838Z,100094.08
2024-02-26T22:20:54.673Z,100097.95
2024-02-26T22:23:22.361Z,100097.48
2024-02-26T22:25:50.334Z,100098.60
2024-02-26T22:28:17.946Z,100100.53
2024-02-26T22:30:45.631Z,100098.09
2024-02-26T22:33:13.405Z,100099.86
2024-02-26T22:35:41.155Z,100103.03
2024-02-26T22:38:08.888Z,100102.69
2024-02-26T22:40:37.424Z,100101.13
2024-02-26T22:43:07.457Z,100097.80
2024-02-26T22:45:35.649Z,100100.06
2024-02-26T22:48:05.112Z,100106.23
2024-02-26T22:50:32.938Z,100108.02
2024-02-26T22:53:00.652Z,100109.80
2024-02-26T22:55:28.435Z,100112.25
2024-02-26T22:57:58.479Z,100109.99
2024-02-26T23:00:28.132Z,100110.19
2024-02-26T23:02:56.474Z,100110.36
2024-02-26T23:05:25.881Z,100111.96
2024-02-26T23:07:55.313Z,100113.86
2024-02-26T23:10:24.029Z,100111.38
2024-02-26T23:12:52.563Z,100113.95
2024-02-26T23:15:20.309Z,100115.17
2024-02-26T23:17:55.394Z,100115.14
2024-02-26T23:20:24.047Z,100113.48
2024-02-26T23:22:52.287Z,100113.96
2024-02-26T23:25:20.212Z,100115.67
2024-02-26T23:27:49.212Z,100114.79
2024-02-26T23:30:19.136Z,100115.85
2024-02-26T23:32:46.954Z,100110.33
2024-02-26T23:35:14.616Z,100117.44
2024-02-26T23:37:42.258Z,100116.65
2024-02-26T23:40:11.869Z,100116.27
2024-02-26T23:42:39.760Z,100118.53
2024-02-26T23:45:08.788Z,100126.55
2024-02-26T23:47:36.613Z,100134.40
2024-02-26T23:50:05.224Z,100143.27
2024-02-26T23:52:32.941Z,100144.09
2024-02-26T23:55:00.664Z,100140.17
2024-02-26T23:57:28.570Z,100141.33
2024-02-26T23:59:56.324Z,100142.23
